sensor_id;sensor_type;location;lat;lon;timestamp;temperature;humidity
22112;DHT22;11222;50.872;4.312;2023-09-30T00:01:01;15.10;99.90
22112;DHT22;11222;50.872;4.312;2023-09-30T00:03:27;15.10;99.90
22112;DHT22;11222;50.872;4.312;2023-09-30T00:05:54;15.00;99.90
22112;DHT22;11222;50.872;4.312;2023-09-30T00:08:21;15.10;99.90
22112;DHT22;11222;50.872;4.312;2023-09-30T00:10:46;15.00;99.90
22112;DHT22;11222;50.872;4.312;2023-09-30T00:13:13;15.00;99.90
22112;DHT22;11222;50.872;4.312;2023-09-30T00:15:39;14.90;99.90
22112;DHT22;11222;50.872;4.312;2023-09-30T00:18:06;14.80;99.90
22112;DHT22;11222;50.872;4.312;2023-09-30T00:20:32;14.80;99.90
22112;DHT22;11222;50.872;4.312;2023-09-30T00:22:57;14.70;99.90
22112;DHT22;11222;50.872;4.312;2023-09-30T00:25:23;14.70;99.90
22112;DHT22;11222;50.872;4.312;2023-09-30T00:27:49;14.70;99.90
22112;DHT22;11222;50.872;4.312;2023-09-30T00:30:14;14.60;99.90
22112;DHT22;11222;50.872;4.312;2023-09-30T00:32:40;14.60;99.90
22112;DHT22;11222;50.872;4.312;2023-09-30T00:35:07;14.60;99.90
22112;DHT22;11222;50.872;4.312;2023-09-30T00:37:39;14.60;99.90
22112;DHT22;11222;50.872;4.312;2023-09-30T00:40:05;14.60;99.90
22112;DHT22;11222;50.872;4.312;2023-09-30T00:42:31;14.50;99.90
22112;DHT22;11222;50.872;4.312;2023-09-30T00:44:57;14.50;99.90
22112;DHT22;11222;50.872;4.312;2023-09-30T00:47:23;14.50;99.90
22112;DHT22;11222;50.872;4.312;2023-09-30T00:49:50;14.50;99.90
22112;DHT22;11222;50.872;4.312;2023-09-30T00:52:17;14.50;99.90
22112;DHT22;11222;50.872;4.312;2023-09-30T00:54:44;14.50;99.90
22112;DHT22;11222;50.872;4.312;2023-09-30T00:57:10;14.60;99.90
22112;DHT22;11222;50.872;4.312;2023-09-30T00:59:36;14.60;99.90
22112;DHT22;11222;50.872;4.312;2023-09-30T01:02:03;14.60;99.90
22112;DHT22;11222;50.872;4.312;2023-09-30T01:04:31;14.60;99.90
22112;DHT22;11222;50.872;4.312;2023-09-30T01:06:56;14.60;99.90
22112;DHT22;11222;50.872;4.312;2023-09-30T01:09:25;14.70;99.90
22112;DHT22;11222;50.872;4.312;2023-09-30T01:11:51;14.70;99.90
22112;DHT22;11222;50.872;4.312;2023-09-30T01:14:27;14.80;99.90
22112;DHT22;11222;50.872;4.312;2023-09-30T01:16:53;14.70;99.90
22112;DHT22;11222;50.872;4.312;2023-09-30T01:19:19;14.70;99.90
22112;DHT22;11222;50.872;4.312;2023-09-30T01:21:45;14.70;99.90
22112;DHT22;11222;50.872;4.312;2023-09-30T01:24:15;14.80;99.90
22112;DHT22;11222;50.872;4.312;2023-09-30T01:26:40;14.80;99.90
22112;DHT22;11222;50.872;4.312;2023-09-30T01:29:08;14.80;99.90
22112;DHT22;11222;50.872;4.312;2023-09-30T01:31:36;14.90;99.90
22112;DHT22;11222;50.872;4.312;2023-09-30T01:34:02;14.90;99.90
22112;DHT22;11222;50.872;4.312;2023-09-30T01:36:28;15.00;99.90
22112;DHT22;11222;50.872;4.312;2023-09-30T01:38:54;14.90;99.90
22112;DHT22;11222;50.872;4.312;2023-09-30T01:41:19;14.90;99.90
22112;DHT22;11222;50.872;4.312;2023-09-30T01:43:45;14.80;99.90
22112;DHT22;11222;50.872;4.312;2023-09-30T01:46:12;14.70;99.90
22112;DHT22;11222;50.872;4.312;2023-09-30T01:48:38;14.60;99.90
22112;DHT22;11222;50.872;4.312;2023-09-30T01:51:04;14.50;99.90
22112;DHT22;11222;50.872;4.312;2023-09-30T01:53:29;14.40;99.90
22112;DHT22;11222;50.872;4.312;2023-09-30T01:55:55;14.40;99.90
22112;DHT22;11222;50.872;4.312;2023-09-30T01:58:21;14.40;99.90
22112;DHT22;11222;50.872;4.312;2023-09-30T02:00:46;14.30;99.90
22112;DHT22;11222;50.872;4.312;2023-09-30T02:03:12;14.30;99.90
22112;DHT22;11222;50.872;4.312;2023-09-30T02:05:39;14.30;99.90
22112;DHT22;11222;50.872;4.312;2023-09-30T02:08:05;14.30;99.90
22112;DHT22;11222;50.872;4.312;2023-09-30T02:10:32;14.20;99.90
22112;DHT22;11222;50.872;4.312;2023-09-30T02:13:01;14.20;99.90
22112;DHT22;11222;50.872;4.312;2023-09-30T02:15:27;14.20;99.90
22112;DHT22;11222;50.872;4.312;2023-09-30T02:17:53;14.20;99.90
22112;DHT22;11222;50.872;4.312;2023-09-30T02:20:18;14.20;99.90
22112;DHT22;11222;50.872;4.312;2023-09-30T02:22:47;14.20;99.90
22112;DHT22;11222;50.872;4.312;2023-09-30T02:25:14;14.20;99.90
22112;DHT22;11222;50.872;4.312;2023-09-30T02:27:41;14.20;99.90
22112;DHT22;11222;50.872;4.312;2023-09-30T02:30:08;14.20;99.90
22112;DHT22;11222;50.872;4.312;2023-09-30T02:32:36;14.20;99.90
22112;DHT22;11222;50.872;4.312;2023-09-30T02:35:02;14.10;99.90
22112;DHT22;11222;50.872;4.312;2023-09-30T02:37:32;14.10;99.90
22112;DHT22;11222;50.872;4.312;2023-09-30T02:40:01;14.10;99.90
22112;DHT22;11222;50.872;4.312;2023-09-30T02:42:29;14.00;99.90
22112;DHT22;11222;50.872;4.312;2023-09-30T02:44:55;14.00;99.90
22112;DHT22;11222;50.872;4.312;2023-09-30T02:47:21;14.00;99.90
22112;DHT22;11222;50.872;4.312;2023-09-30T02:49:46;13.90;99.90
22112;DHT22;11222;50.872;4.312;2023-09-30T02:52:12;13.90;99.90
22112;DHT22;11222;50.872;4.312;2023-09-30T02:54:38;14.00;99.90
22112;DHT22;11222;50.872;4.312;2023-09-30T02:57:03;14.00;99.90
22112;DHT22;11222;50.872;4.312;2023-09-30T02:59:29;13.90;99.90
22112;DHT22;11222;50.872;4.312;2023-09-30T03:01:55;13.90;99.90
22112;DHT22;11222;50.872;4.312;2023-09-30T03:04:21;13.90;99.90
22112;DHT22;11222;50.872;4.312;2023-09-30T03:06:51;13.90;99.90
22112;DHT22;11222;50.872;4.312;2023-09-30T03:09:17;13.90;99.90
22112;DHT22;11222;50.872;4.312;2023-09-30T03:11:43;13.80;99.90
22112;DHT22;11222;50.872;4.312;2023-09-30T03:14:10;13.80;99.90
22112;DHT22;11222;50.872;4.312;2023-09-30T03:16:36;13.80;99.90
22112;DHT22;11222;50.872;4.312;2023-09-30T03:19:04;13.80;99.90
22112;DHT22;11222;50.872;4.312;2023-09-30T03:21:32;13.80;99.90
22112;DHT22;11222;50.872;4.312;2023-09-30T03:23:58;13.80;99.90
22112;DHT22;11222;50.872;4.312;2023-09-30T03:26:23;13.80;99.90
22112;DHT22;11222;50.872;4.312;2023-09-30T03:28:49;13.80;99.90
22112;DHT22;11222;50.872;4.312;2023-09-30T03:31:19;13.80;99.90
22112;DHT22;11222;50.872;4.312;2023-09-30T03:33:45;13.80;99.90
22112;DHT22;11222;50.872;4.312;2023-09-30T03:36:12;13.80;99.90
22112;DHT22;11222;50.872;4.312;2023-09-30T03:38:37;13.80;99.90
22112;DHT22;11222;50.872;4.312;2023-09-30T03:41:04;13.80;99.90
22112;DHT22;11222;50.872;4.312;2023-09-30T03:43:33;13.80;99.90
22112;DHT22;11222;50.872;4.312;2023-09-30T03:46:01;13.80;99.90
22112;DHT22;11222;50.872;4.312;2023-09-30T03:48:26;13.80;99.90
22112;DHT22;11222;50.872;4.312;2023-09-30T03:50:52;13.80;99.90
22112;DHT22;11222;50.872;4.312;2023-09-30T03:53:19;13.70;99.90
22112;DHT22;11222;50.872;4.312;2023-09-30T03:55:45;13.70;99.90
22112;DHT22;11222;50.872;4.312;2023-09-30T03:58:11;13.70;99.90
22112;DHT22;11222;50.872;4.312;2023-09-30T04:00:38;13.70;99.90
22112;DHT22;11222;50.872;4.312;2023-09-30T04:03:05;13.70;99.90
22112;DHT22;11222;50.872;4.312;2023-09-30T04:05:31;13.70;99.90
22112;DHT22;11222;50.872;4.312;2023-09-30T04:08:02;13.60;99.90
22112;DHT22;11222;50.872;4.312;2023-09-30T04:10:27;13.60;99.90
22112;DHT22;11222;50.872;4.312;2023-09-30T04:12:55;13.50;99.90
22112;DHT22;11222;50.872;4.312;2023-09-30T04:15:22;13.50;99.90
22112;DHT22;11222;50.872;4.312;2023-09-30T04:17:50;13.50;99.90
22112;DHT22;11222;50.872;4.312;2023-09-30T04:20:17;13.50;99.90
22112;DHT22;11222;50.872;4.312;2023-09-30T04:22:48;13.50;99.90
22112;DHT22;11222;50.872;4.312;2023-09-30T04:25:15;13.50;99.90
22112;DHT22;11222;50.872;4.312;2023-09-30T04:27:42;13.40;99.90
22112;DHT22;11222;50.872;4.312;2023-09-30T04:30:08;13.40;99.90
22112;DHT22;11222;50.872;4.312;2023-09-30T04:32:36;13.40;99.90
22112;DHT22;11222;50.872;4.312;2023-09-30T04:35:05;13.40;99.90
22112;DHT22;11222;50.872;4.312;2023-09-30T04:37:31;13.30;99.90
22112;DHT22;11222;50.872;4.312;2023-09-30T04:39:57;13.30;99.90
22112;DHT22;11222;50.872;4.312;2023-09-30T04:42:25;13.30;99.90
22112;DHT22;11222;50.872;4.312;2023-09-30T04:44:52;13.30;99.90
22112;DHT22;11222;50.872;4.312;2023-09-30T04:47:18;13.30;99.90
22112;DHT22;11222;50.872;4.312;2023-09-30T04:49:44;13.30;99.90
22112;DHT22;11222;50.872;4.312;2023-09-30T04:52:10;13.30;99.90
22112;DHT22;11222;50.872;4.312;2023-09-30T04:54:37;13.30;99.90
22112;DHT22;11222;50.872;4.312;2023-09-30T04:57:02;13.20;99.90
22112;DHT22;11222;50.872;4.312;2023-09-30T04:59:28;13.20;99.90
22112;DHT22;11222;50.872;4.312;2023-09-30T05:01:55;13.20;99.90
22112;DHT22;11222;50.872;4.312;2023-09-30T05:04:21;13.10;99.90
22112;DHT22;11222;50.872;4.312;2023-09-30T05:06:49;13.10;99.90
22112;DHT22;11222;50.872;4.312;2023-09-30T05:09:15;13.10;99.90
22112;DHT22;11222;50.872;4.312;2023-09-30T05:11:40;13.10;99.90
22112;DHT22;11222;50.872;4.312;2023-09-30T05:14:06;13.10;99.90
22112;DHT22;11222;50.872;4.312;2023-09-30T05:16:32;13.10;99.90
22112;DHT22;11222;50.872;4.312;2023-09-30T05:18:57;13.10;99.90
22112;DHT22;11222;50.872;4.312;2023-09-30T05:21:23;13.10;99.90
22112;DHT22;11222;50.872;4.312;2023-09-30T05:23:49;13.10;99.90
22112;DHT22;11222;50.872;4.312;2023-09-30T05:26:15;13.00;99.90
22112;DHT22;11222;50.872;4.312;2023-09-30T05:28:42;13.00;99.90
22112;DHT22;11222;50.872;4.312;2023-09-30T05:31:08;13.00;99.90
22112;DHT22;11222;50.872;4.312;2023-09-30T05:33:33;13.00;99.90
22112;DHT22;11222;50.872;4.312;2023-09-30T05:36:01;13.00;99.90
22112;DHT22;11222;50.872;4.312;2023-09-30T05:38:28;13.00;99.90
22112;DHT22;11222;50.872;4.312;2023-09-30T05:40:56;13.00;99.90
22112;DHT22;11222;50.872;4.312;2023-09-30T05:43:24;13.00;99.90
22112;DHT22;11222;50.872;4.312;2023-09-30T05:45:50;13.00;99.90
22112;DHT22;11222;50.872;4.312;2023-09-30T05:48:21;13.00;99.90
22112;DHT22;11222;50.872;4.312;2023-09-30T05:50:46;13.00;99.90
22112;DHT22;11222;50.872;4.312;2023-09-30T05:53:13;13.00;99.90
22112;DHT22;11222;50.872;4.312;2023-09-30T05:55:39;13.10;99.90
22112;DHT22;11222;50.872;4.312;2023-09-30T05:58:09;13.10;99.90
22112;DHT22;11222;50.872;4.312;2023-09-30T06:00:35;13.10;99.90
22112;DHT22;11222;50.872;4.312;2023-09-30T06:03:01;13.20;99.90
22112;DHT22;11222;50.872;4.312;2023-09-30T06:05:28;13.30;99.90
22112;DHT22;11222;50.872;4.312;2023-09-30T06:07:56;13.30;99.90
22112;DHT22;11222;50.872;4.312;2023-09-30T06:10:22;13.30;99.90
22112;DHT22;11222;50.872;4.312;2023-09-30T06:12:49;13.30;99.90
22112;DHT22;11222;50.872;4.312;2023-09-30T06:15:15;13.30;99.90
22112;DHT22;11222;50.872;4.312;2023-09-30T06:17:41;13.30;99.90
22112;DHT22;11222;50.872;4.312;2023-09-30T06:20:08;13.30;99.90
22112;DHT22;11222;50.872;4.312;2023-09-30T06:22:42;13.30;99.90
22112;DHT22;11222;50.872;4.312;2023-09-30T06:25:08;13.30;99.90
22112;DHT22;11222;50.872;4.312;2023-09-30T06:27:35;13.30;99.90
22112;DHT22;11222;50.872;4.312;2023-09-30T06:30:01;13.30;99.90
22112;DHT22;11222;50.872;4.312;2023-09-30T06:32:26;13.30;99.90
22112;DHT22;11222;50.872;4.312;2023-09-30T06:34:53;13.30;99.90
22112;DHT22;11222;50.872;4.312;2023-09-30T06:37:18;13.40;99.90
22112;DHT22;11222;50.872;4.312;2023-09-30T06:39:45;13.40;99.90
22112;DHT22;11222;50.872;4.312;2023-09-30T06:42:10;13.40;99.90
22112;DHT22;11222;50.872;4.312;2023-09-30T06:44:37;13.40;99.90
22112;DHT22;11222;50.872;4.312;2023-09-30T06:47:03;13.50;99.90
22112;DHT22;11222;50.872;4.312;2023-09-30T06:49:30;13.50;99.90
22112;DHT22;11222;50.872;4.312;2023-09-30T06:51:58;13.60;99.90
22112;DHT22;11222;50.872;4.312;2023-09-30T06:54:24;13.60;99.90
22112;DHT22;11222;50.872;4.312;2023-09-30T06:56:49;13.70;99.90
22112;DHT22;11222;50.872;4.312;2023-09-30T06:59:15;13.80;99.90
22112;DHT22;11222;50.872;4.312;2023-09-30T07:01:41;13.80;99.90
22112;DHT22;11222;50.872;4.312;2023-09-30T07:04:07;13.80;99.90
22112;DHT22;11222;50.872;4.312;2023-09-30T07:06:32;13.80;99.90
22112;DHT22;11222;50.872;4.312;2023-09-30T07:08:58;13.90;99.90
22112;DHT22;11222;50.872;4.312;2023-09-30T07:11:28;13.90;99.90
22112;DHT22;11222;50.872;4.312;2023-09-30T07:14:00;14.10;99.90
22112;DHT22;11222;50.872;4.312;2023-09-30T07:16:27;14.00;99.90
22112;DHT22;11222;50.872;4.312;2023-09-30T07:18:53;14.00;99.90
22112;DHT22;11222;50.872;4.312;2023-09-30T07:21:19;14.00;99.90
22112;DHT22;11222;50.872;4.312;2023-09-30T07:23:45;14.10;99.90
22112;DHT22;11222;50.872;4.312;2023-09-30T07:26:10;14.00;99.90
22112;DHT22;11222;50.872;4.312;2023-09-30T07:28:36;14.10;99.90
22112;DHT22;11222;50.872;4.312;2023-09-30T07:31:02;14.10;99.90
22112;DHT22;11222;50.872;4.312;2023-09-30T07:33:28;14.10;99.90
22112;DHT22;11222;50.872;4.312;2023-09-30T07:35:55;14.10;99.90
22112;DHT22;11222;50.872;4.312;2023-09-30T07:38:21;14.10;99.90
22112;DHT22;11222;50.872;4.312;2023-09-30T07:40:47;14.30;99.90
22112;DHT22;11222;50.872;4.312;2023-09-30T07:43:14;14.30;99.90
22112;DHT22;11222;50.872;4.312;2023-09-30T07:45:40;14.40;99.90
22112;DHT22;11222;50.872;4.312;2023-09-30T07:48:09;14.60;99.90
22112;DHT22;11222;50.872;4.312;2023-09-30T07:50:36;14.80;99.90
22112;DHT22;11222;50.872;4.312;2023-09-30T07:53:02;14.80;99.90
22112;DHT22;11222;50.872;4.312;2023-09-30T07:55:28;14.90;99.90
22112;DHT22;11222;50.872;4.312;2023-09-30T07:57:54;14.90;99.90
22112;DHT22;11222;50.872;4.312;2023-09-30T08:00:19;14.90;99.90
22112;DHT22;11222;50.872;4.312;2023-09-30T08:02:46;15.00;99.90
22112;DHT22;11222;50.872;4.312;2023-09-30T08:05:13;15.00;99.90
22112;DHT22;11222;50.872;4.312;2023-09-30T08:07:38;15.00;99.90
22112;DHT22;11222;50.872;4.312;2023-09-30T08:10:05;15.00;99.90
22112;DHT22;11222;50.872;4.312;2023-09-30T08:12:32;15.00;99.90
22112;DHT22;11222;50.872;4.312;2023-09-30T08:14:58;15.10;99.90
22112;DHT22;11222;50.872;4.312;2023-09-30T08:17:24;15.20;99.90
22112;DHT22;11222;50.872;4.312;2023-09-30T08:19:50;15.30;99.90
22112;DHT22;11222;50.872;4.312;2023-09-30T08:22:16;15.20;99.90
22112;DHT22;11222;50.872;4.312;2023-09-30T08:24:42;15.20;99.90
22112;DHT22;11222;50.872;4.312;2023-09-30T08:27:09;15.10;99.90
22112;DHT22;11222;50.872;4.312;2023-09-30T08:29:35;15.20;99.90
22112;DHT22;11222;50.872;4.312;2023-09-30T08:32:04;15.30;99.90
22112;DHT22;11222;50.872;4.312;2023-09-30T08:34:30;15.40;99.90
22112;DHT22;11222;50.872;4.312;2023-09-30T08:36:56;15.50;99.90
22112;DHT22;11222;50.872;4.312;2023-09-30T08:39:22;15.50;99.90
22112;DHT22;11222;50.872;4.312;2023-09-30T08:41:50;15.70;99.90
22112;DHT22;11222;50.872;4.312;2023-09-30T08:44:16;15.80;99.90
22112;DHT22;11222;50.872;4.312;2023-09-30T08:46:42;16.00;99.90
22112;DHT22;11222;50.872;4.312;2023-09-30T08:49:09;16.20;99.90
22112;DHT22;11222;50.872;4.312;2023-09-30T08:51:36;16.30;99.90
22112;DHT22;11222;50.872;4.312;2023-09-30T08:54:02;16.30;99.90
22112;DHT22;11222;50.872;4.312;2023-09-30T08:56:30;16.30;99.90
22112;DHT22;11222;50.872;4.312;2023-09-30T08:59:01;16.30;99.90
22112;DHT22;11222;50.872;4.312;2023-09-30T09:01:28;16.40;99.90
22112;DHT22;11222;50.872;4.312;2023-09-30T09:03:56;16.40;99.90
22112;DHT22;11222;50.872;4.312;2023-09-30T09:06:22;16.50;99.90
22112;DHT22;11222;50.872;4.312;2023-09-30T09:08:48;16.60;99.90
22112;DHT22;11222;50.872;4.312;2023-09-30T09:11:14;16.50;99.90
22112;DHT22;11222;50.872;4.312;2023-09-30T09:13:51;16.50;99.90
22112;DHT22;11222;50.872;4.312;2023-09-30T09:16:21;16.50;99.90
22112;DHT22;11222;50.872;4.312;2023-09-30T09:18:48;16.60;99.90
22112;DHT22;11222;50.872;4.312;2023-09-30T09:21:16;16.60;99.90
22112;DHT22;11222;50.872;4.312;2023-09-30T09:23:44;16.80;99.90
22112;DHT22;11222;50.872;4.312;2023-09-30T09:26:11;17.00;99.90
22112;DHT22;11222;50.872;4.312;2023-09-30T09:28:37;17.00;99.90
22112;DHT22;11222;50.872;4.312;2023-09-30T09:31:22;17.10;99.90
22112;DHT22;11222;50.872;4.312;2023-09-30T09:33:49;17.10;99.90
22112;DHT22;11222;50.872;4.312;2023-09-30T09:36:15;17.30;99.90
22112;DHT22;11222;50.872;4.312;2023-09-30T09:38:51;17.80;99.90
22112;DHT22;11222;50.872;4.312;2023-09-30T09:41:20;18.50;99.90
22112;DHT22;11222;50.872;4.312;2023-09-30T09:43:48;19.40;99.90
22112;DHT22;11222;50.872;4.312;2023-09-30T09:46:17;20.10;99.90
22112;DHT22;11222;50.872;4.312;2023-09-30T09:48:45;20.60;99.90
22112;DHT22;11222;50.872;4.312;2023-09-30T09:51:13;21.10;99.90
22112;DHT22;11222;50.872;4.312;2023-09-30T09:53:41;21.30;99.90
22112;DHT22;11222;50.872;4.312;2023-09-30T09:56:10;20.80;99.90
22112;DHT22;11222;50.872;4.312;2023-09-30T09:58:36;20.60;99.90
22112;DHT22;11222;50.872;4.312;2023-09-30T10:01:05;21.20;99.90
22112;DHT22;11222;50.872;4.312;2023-09-30T10:03:32;20.70;99.90
22112;DHT22;11222;50.872;4.312;2023-09-30T10:05:59;21.00;99.90
22112;DHT22;11222;50.872;4.312;2023-09-30T10:08:45;22.30;99.90
22112;DHT22;11222;50.872;4.312;2023-09-30T10:11:18;24.10;99.90
22112;DHT22;11222;50.872;4.312;2023-09-30T10:13:58;23.90;99.90
22112;DHT22;11222;50.872;4.312;2023-09-30T10:19:09;22.50;99.90
22112;DHT22;11222;50.872;4.312;2023-09-30T10:21:36;22.70;99.90
22112;DHT22;11222;50.872;4.312;2023-09-30T10:40:53;25.00;99.90
22112;DHT22;11222;50.872;4.312;2023-09-30T10:43:32;24.90;99.90
22112;DHT22;11222;50.872;4.312;2023-09-30T10:48:53;25.50;99.90
22112;DHT22;11222;50.872;4.312;2023-09-30T10:51:20;26.80;99.90
22112;DHT22;11222;50.872;4.312;2023-09-30T10:53:54;26.90;99.90
22112;DHT22;11222;50.872;4.312;2023-09-30T10:56:32;26.50;99.90
22112;DHT22;11222;50.872;4.312;2023-09-30T10:58:58;26.90;99.90
22112;DHT22;11222;50.872;4.312;2023-09-30T11:01:24;25.80;99.90
22112;DHT22;11222;50.872;4.312;2023-09-30T11:03:58;25.80;99.90
22112;DHT22;11222;50.872;4.312;2023-09-30T11:06:24;26.60;99.90
22112;DHT22;11222;50.872;4.312;2023-09-30T11:11:16;25.50;99.90
22112;DHT22;11222;50.872;4.312;2023-09-30T11:13:42;25.20;99.90
22112;DHT22;11222;50.872;4.312;2023-09-30T11:16:08;24.70;99.90
22112;DHT22;11222;50.872;4.312;2023-09-30T11:18:34;25.50;99.90
22112;DHT22;11222;50.872;4.312;2023-09-30T11:21:09;25.90;99.90
22112;DHT22;11222;50.872;4.312;2023-09-30T11:23:40;27.90;99.90
22112;DHT22;11222;50.872;4.312;2023-09-30T11:26:07;26.50;99.90
22112;DHT22;11222;50.872;4.312;2023-09-30T11:28:38;25.90;99.90
22112;DHT22;11222;50.872;4.312;2023-09-30T11:31:08;27.00;99.90
22112;DHT22;11222;50.872;4.312;2023-09-30T11:33:54;27.10;99.90
22112;DHT22;11222;50.872;4.312;2023-09-30T11:36:22;27.70;99.90
22112;DHT22;11222;50.872;4.312;2023-09-30T11:38:49;27.50;99.90
22112;DHT22;11222;50.872;4.312;2023-09-30T11:41:16;27.80;99.90
22112;DHT22;11222;50.872;4.312;2023-09-30T11:44:10;28.30;99.90
22112;DHT22;11222;50.872;4.312;2023-09-30T11:46:57;28.20;99.90
22112;DHT22;11222;50.872;4.312;2023-09-30T11:49:32;29.10;97.40
22112;DHT22;11222;50.872;4.312;2023-09-30T11:52:03;28.70;97.00
22112;DHT22;11222;50.872;4.312;2023-09-30T11:54:34;28.40;96.60
22112;DHT22;11222;50.872;4.312;2023-09-30T11:57:03;29.30;95.70
22112;DHT22;11222;50.872;4.312;2023-09-30T11:59:32;28.60;95.70
22112;DHT22;11222;50.872;4.312;2023-09-30T12:01:58;29.80;94.40
22112;DHT22;11222;50.872;4.312;2023-09-30T12:04:24;29.40;92.50
22112;DHT22;11222;50.872;4.312;2023-09-30T12:06:50;27.30;94.60
22112;DHT22;11222;50.872;4.312;2023-09-30T12:09:16;26.90;96.80
22112;DHT22;11222;50.872;4.312;2023-09-30T12:11:48;26.40;96.80
22112;DHT22;11222;50.872;4.312;2023-09-30T12:14:13;25.60;97.40
22112;DHT22;11222;50.872;4.312;2023-09-30T12:16:39;25.00;96.80
22112;DHT22;11222;50.872;4.312;2023-09-30T12:19:07;23.60;99.80
22112;DHT22;11222;50.872;4.312;2023-09-30T12:21:32;23.30;99.90
22112;DHT22;11222;50.872;4.312;2023-09-30T12:24:00;22.40;99.90
22112;DHT22;11222;50.872;4.312;2023-09-30T12:26:25;22.20;99.90
22112;DHT22;11222;50.872;4.312;2023-09-30T12:28:51;22.00;99.90
22112;DHT22;11222;50.872;4.312;2023-09-30T12:31:18;22.00;99.90
22112;DHT22;11222;50.872;4.312;2023-09-30T12:33:45;21.80;99.90
22112;DHT22;11222;50.872;4.312;2023-09-30T12:36:16;21.80;99.90
22112;DHT22;11222;50.872;4.312;2023-09-30T12:38:42;21.80;99.90
22112;DHT22;11222;50.872;4.312;2023-09-30T12:41:08;21.70;99.90
22112;DHT22;11222;50.872;4.312;2023-09-30T12:43:34;21.70;99.90
22112;DHT22;11222;50.872;4.312;2023-09-30T12:45:59;21.90;99.90
22112;DHT22;11222;50.872;4.312;2023-09-30T12:48:25;21.90;99.90
22112;DHT22;11222;50.872;4.312;2023-09-30T12:50:51;21.90;99.90
22112;DHT22;11222;50.872;4.312;2023-09-30T12:53:16;21.80;99.90
22112;DHT22;11222;50.872;4.312;2023-09-30T12:55:42;21.70;99.90
22112;DHT22;11222;50.872;4.312;2023-09-30T12:58:08;21.50;99.90
22112;DHT22;11222;50.872;4.312;2023-09-30T13:00:34;21.40;99.90
22112;DHT22;11222;50.872;4.312;2023-09-30T13:03:02;21.50;99.90
22112;DHT22;11222;50.872;4.312;2023-09-30T13:05:28;21.50;99.90
22112;DHT22;11222;50.872;4.312;2023-09-30T13:07:57;21.30;99.90
22112;DHT22;11222;50.872;4.312;2023-09-30T13:10:23;21.50;99.90
22112;DHT22;11222;50.872;4.312;2023-09-30T13:12:49;21.40;99.90
22112;DHT22;11222;50.872;4.312;2023-09-30T13:15:16;21.40;99.90
22112;DHT22;11222;50.872;4.312;2023-09-30T13:17:42;21.30;99.90
22112;DHT22;11222;50.872;4.312;2023-09-30T13:20:09;21.20;99.90
22112;DHT22;11222;50.872;4.312;2023-09-30T13:22:37;21.10;99.90
22112;DHT22;11222;50.872;4.312;2023-09-30T13:25:07;21.00;99.90
22112;DHT22;11222;50.872;4.312;2023-09-30T13:27:38;20.80;99.90
22112;DHT22;11222;50.872;4.312;2023-09-30T13:30:06;20.90;99.90
22112;DHT22;11222;50.872;4.312;2023-09-30T13:32:33;21.00;99.90
22112;DHT22;11222;50.872;4.312;2023-09-30T13:35:05;21.20;99.90
22112;DHT22;11222;50.872;4.312;2023-09-30T13:37:31;21.50;99.90
22112;DHT22;11222;50.872;4.312;2023-09-30T13:40:05;21.60;99.90
22112;DHT22;11222;50.872;4.312;2023-09-30T13:42:33;21.50;99.90
22112;DHT22;11222;50.872;4.312;2023-09-30T13:44:59;21.30;99.90
22112;DHT22;11222;50.872;4.312;2023-09-30T13:47:26;21.20;99.90
22112;DHT22;11222;50.872;4.312;2023-09-30T13:49:52;21.40;99.90
22112;DHT22;11222;50.872;4.312;2023-09-30T13:52:18;21.60;99.90
22112;DHT22;11222;50.872;4.312;2023-09-30T13:54:43;21.40;99.90
22112;DHT22;11222;50.872;4.312;2023-09-30T13:57:09;21.60;99.90
22112;DHT22;11222;50.872;4.312;2023-09-30T13:59:35;21.70;99.90
22112;DHT22;11222;50.872;4.312;2023-09-30T14:02:02;21.40;99.90
22112;DHT22;11222;50.872;4.312;2023-09-30T14:04:30;21.50;99.90
22112;DHT22;11222;50.872;4.312;2023-09-30T14:06:58;21.80;99.90
22112;DHT22;11222;50.872;4.312;2023-09-30T14:09:26;22.00;99.90
22112;DHT22;11222;50.872;4.312;2023-09-30T14:11:52;22.10;99.90
22112;DHT22;11222;50.872;4.312;2023-09-30T14:14:17;21.70;99.90
22112;DHT22;11222;50.872;4.312;2023-09-30T14:16:43;21.50;99.90
22112;DHT22;11222;50.872;4.312;2023-09-30T14:19:09;21.30;99.90
22112;DHT22;11222;50.872;4.312;2023-09-30T14:21:34;21.00;99.90
22112;DHT22;11222;50.872;4.312;2023-09-30T14:24:00;21.00;99.90
22112;DHT22;11222;50.872;4.312;2023-09-30T14:26:27;21.00;99.90
22112;DHT22;11222;50.872;4.312;2023-09-30T14:28:54;21.10;99.90
22112;DHT22;11222;50.872;4.312;2023-09-30T14:31:19;21.10;99.90
22112;DHT22;11222;50.872;4.312;2023-09-30T14:33:45;21.10;99.90
22112;DHT22;11222;50.872;4.312;2023-09-30T14:36:11;21.00;99.90
22112;DHT22;11222;50.872;4.312;2023-09-30T14:38:36;21.10;99.90
22112;DHT22;11222;50.872;4.312;2023-09-30T14:41:07;21.30;99.90
22112;DHT22;11222;50.872;4.312;2023-09-30T14:43:33;21.30;99.90
22112;DHT22;11222;50.872;4.312;2023-09-30T14:46:02;21.30;99.90
22112;DHT22;11222;50.872;4.312;2023-09-30T14:48:29;21.20;99.90
22112;DHT22;11222;50.872;4.312;2023-09-30T14:50:55;21.20;99.90
22112;DHT22;11222;50.872;4.312;2023-09-30T14:53:22;21.10;99.90
22112;DHT22;11222;50.872;4.312;2023-09-30T14:55:48;21.00;99.90
22112;DHT22;11222;50.872;4.312;2023-09-30T14:58:14;21.00;99.90
22112;DHT22;11222;50.872;4.312;2023-09-30T15:00:40;20.90;99.90
22112;DHT22;11222;50.872;4.312;2023-09-30T15:03:05;20.60;99.90
22112;DHT22;11222;50.872;4.312;2023-09-30T15:05:32;20.50;99.90
22112;DHT22;11222;50.872;4.312;2023-09-30T15:07:59;20.40;99.90
22112;DHT22;11222;50.872;4.312;2023-09-30T15:10:28;20.30;99.90
22112;DHT22;11222;50.872;4.312;2023-09-30T15:12:54;20.40;99.90
22112;DHT22;11222;50.872;4.312;2023-09-30T15:15:20;20.50;99.90
22112;DHT22;11222;50.872;4.312;2023-09-30T15:17:46;20.60;99.90
22112;DHT22;11222;50.872;4.312;2023-09-30T15:20:12;20.60;99.90
22112;DHT22;11222;50.872;4.312;2023-09-30T15:22:39;20.60;99.90
22112;DHT22;11222;50.872;4.312;2023-09-30T15:25:06;20.60;99.90
22112;DHT22;11222;50.872;4.312;2023-09-30T15:27:32;20.60;99.90
22112;DHT22;11222;50.872;4.312;2023-09-30T15:30:01;20.50;99.90
22112;DHT22;11222;50.872;4.312;2023-09-30T15:32:29;20.60;99.90
22112;DHT22;11222;50.872;4.312;2023-09-30T15:34:56;20.60;99.90
22112;DHT22;11222;50.872;4.312;2023-09-30T15:37:21;20.60;99.90
22112;DHT22;11222;50.872;4.312;2023-09-30T15:39:47;20.60;99.90
22112;DHT22;11222;50.872;4.312;2023-09-30T15:42:13;20.70;99.90
22112;DHT22;11222;50.872;4.312;2023-09-30T15:44:39;20.80;99.90
22112;DHT22;11222;50.872;4.312;2023-09-30T15:47:06;20.90;99.90
22112;DHT22;11222;50.872;4.312;2023-09-30T15:49:32;20.90;99.90
22112;DHT22;11222;50.872;4.312;2023-09-30T15:51:58;21.00;99.90
22112;DHT22;11222;50.872;4.312;2023-09-30T15:54:23;21.00;99.90